createdAt,value
2019-01-06T00:02:05.977Z,98619.80
2019-01-06T00:05:13.798Z,98871.28
2019-01-06T00:11:17.212Z,98867.07
2019-01-06T00:14:25.029Z,98763.57
2019-01-06T00:17:13.607Z,98860.91
2019-01-06T00:23:49.900Z,98869.91
2019-01-06T00:26:57.731Z,98876.44
2019-01-06T00:30:05.556Z,98653.67
2019-01-06T00:33:13.370Z,98624.86
2019-01-06T00:36:21.199Z,98873.70
2019-01-06T00:39:29.017Z,98882.52
2019-01-06T00:45:31.745Z,98672.61
2019-01-06T00:48:39.587Z,98689.41
2019-01-06T00:51:47.404Z,98876.59
2019-01-06T00:54:55.240Z,98873.66
2019-01-06T00:58:03.294Z,98871.56
2019-01-06T01:01:11.127Z,98803.14
2019-01-06T01:07:28.336Z,98890.61
2019-01-06T01:10:36.164Z,98816.41
2019-01-06T01:13:44.000Z,98900.38
2019-01-06T01:16:51.831Z,98907.33
2019-01-06T01:19:59.650Z,98905.14
2019-01-06T01:26:06.761Z,98894.81
2019-01-06T01:29:14.592Z,98912.11
2019-01-06T01:32:03.144Z,98901.64
2019-01-06T01:38:06.746Z,98905.86
2019-01-06T01:41:14.565Z,98663.62
2019-01-06T01:47:17.431Z,98911.45
2019-01-06T01:50:25.422Z,98919.94
2019-01-06T01:53:33.255Z,98651.87
2019-01-06T01:56:41.066Z,98895.99
2019-01-06T01:59:48.900Z,98708.95
2019-01-06T02:02:56.730Z,98919.98
2019-01-06T02:06:04.550Z,98914.62
2019-01-06T02:09:12.383Z,98921.48
2019-01-06T02:12:20.196Z,98926.78
2019-01-06T02:15:28.087Z,98931.20
2019-01-06T02:21:45.542Z,98930.41
2019-01-06T02:24:53.369Z,98932.80
2019-01-06T02:27:41.958Z,98924.23
2019-01-06T02:30:49.759Z,98928.46
2019-01-06T02:33:57.592Z,98741.77
2019-01-06T02:37:05.400Z,98709.67
2019-01-06T02:40:13.246Z,98763.50
2019-01-06T02:49:25.247Z,98823.70
2019-01-06T02:55:32.051Z,98931.73
2019-01-06T03:01:49.252Z,98932.10
2019-01-06T03:04:57.062Z,98926.73
2019-01-06T03:11:00.808Z,98677.40
2019-01-06T03:13:49.390Z,98925.23
2019-01-06T03:16:57.207Z,98840.95
2019-01-06T03:20:05.040Z,98926.47
2019-01-06T03:23:12.847Z,98915.33
2019-01-06T03:26:20.678Z,98924.92
2019-01-06T03:32:37.885Z,98914.16
2019-01-06T03:35:45.691Z,98913.91
2019-01-06T03:38:53.527Z,98905.81
2019-01-06T03:42:01.339Z,98911.02
2019-01-06T03:45:00.499Z,98909.48
2019-01-06T03:48:08.308Z,98688.74
2019-01-06T03:51:16.140Z,98909.00
2019-01-06T03:54:24.027Z,98907.56
2019-01-06T03:57:31.863Z,98903.81
2019-01-06T04:00:39.676Z,98903.72
2019-01-06T04:03:47.523Z,98763.19
2019-01-06T04:06:55.327Z,98913.95
2019-01-06T04:10:03.151Z,98911.28
2019-01-06T04:16:20.610Z,98903.24
2019-01-06T04:19:28.439Z,98906.71
2019-01-06T04:22:36.264Z,98902.91
2019-01-06T04:25:44.086Z,98894.21
2019-01-06T04:31:47.362Z,98895.44
2019-01-06T04:34:55.181Z,98788.57
2019-01-06T04:41:02.090Z,98889.23
2019-01-06T04:47:10.742Z,98890.66
2019-01-06T04:50:18.561Z,98894.86
2019-01-06T04:53:26.398Z,98894.40
2019-01-06T04:56:34.203Z,98897.28
2019-01-06T04:59:42.048Z,98729.64
2019-01-06T05:02:49.867Z,98892.45
2019-01-06T05:08:53.124Z,98885.39
2019-01-06T05:12:00.937Z,98898.70
2019-01-06T05:15:08.778Z,98892.44
2019-01-06T05:18:16.610Z,98648.62
2019-01-06T05:21:24.428Z,98901.55
2019-01-06T05:24:32.271Z,98898.27
2019-01-06T05:30:49.488Z,98906.95
2019-01-06T05:36:56.502Z,98887.96
2019-01-06T05:43:13.706Z,98911.78
2019-01-06T05:46:00.008Z,98913.16
2019-01-06T05:49:07.846Z,98910.98
2019-01-06T05:52:15.653Z,98911.59
2019-01-06T05:58:38.267Z,98684.64
2019-01-06T06:01:46.093Z,98924.52
2019-01-06T06:04:53.936Z,98921.10
2019-01-06T06:08:01.755Z,98716.75
2019-01-06T06:11:10.007Z,98930.40
2019-01-06T06:14:17.815Z,98680.48
2019-01-06T06:17:25.646Z,98930.03
2019-01-06T06:20:33.483Z,98923.05
2019-01-06T06:23:41.293Z,98716.95
2019-01-06T06:26:49.202Z,98938.23
2019-01-06T06:33:06.410Z,98936.09
2019-01-06T06:36:14.225Z,98936.18
2019-01-06T06:39:22.079Z,98936.18
2019-01-06T06:45:32.476Z,98943.98
2019-01-06T06:48:40.293Z,98673.51
2019-01-06T06:51:48.123Z,98701.70
2019-01-06T06:58:26.288Z,98952.67
2019-01-06T07:01:55.018Z,98954.77
2019-01-06T07:05:02.854Z,98958.78
2019-01-06T07:08:10.667Z,98756.70
2019-01-06T07:14:13.883Z,98980.30
2019-01-06T07:18:00.394Z,98910.28
2019-01-06T07:21:08.227Z,98988.61
2019-01-06T07:27:25.436Z,98992.22
2019-01-06T07:30:33.270Z,98785.59
2019-01-06T07:33:41.085Z,99003.37
2019-01-06T07:36:48.914Z,99016.63
2019-01-06T07:39:56.728Z,99016.19
2019-01-06T07:43:04.563Z,98850.89
2019-01-06T07:45:50.945Z,99016.56
2019-01-06T07:48:58.782Z,99023.27
2019-01-06T07:58:11.743Z,99037.82
2019-01-06T08:01:19.581Z,98804.20
2019-01-06T08:07:36.783Z,99048.98
2019-01-06T08:10:44.601Z,98850.67
2019-01-06T08:13:52.439Z,99057.05
2019-01-06T08:17:00.247Z,99057.42
2019-01-06T08:20:08.081Z,99058.33
2019-01-06T08:23:15.904Z,99034.72
2019-01-06T08:26:23.731Z,98866.45
2019-01-06T08:29:31.564Z,99073.18
2019-01-06T08:32:39.394Z,99071.69
2019-01-06T08:35:47.210Z,98844.78
2019-01-06T08:38:55.039Z,99072.84
2019-01-06T08:42:02.851Z,99073.84
2019-01-06T08:45:10.686Z,99078.64
2019-01-06T08:47:53.611Z,99080.13
2019-01-06T08:51:01.451Z,99023.81
2019-01-06T08:57:04.974Z,99086.72
2019-01-06T09:00:12.788Z,99086.03
2019-01-06T09:06:19.565Z,99079.11
2019-01-06T09:09:27.383Z,98843.13
2019-01-06T09:12:42.860Z,99075.66
2019-01-06T09:15:44.755Z,99076.85
2019-01-06T09:18:52.585Z,99080.41
2019-01-06T09:22:00.418Z,99084.28
2019-01-06T09:25:08.235Z,99087.92
2019-01-06T09:28:16.069Z,99089.66
2019-01-06T09:31:23.903Z,99093.93
2019-01-06T09:34:31.806Z,99092.81
2019-01-06T09:37:39.615Z,98996.66
2019-01-06T09:40:47.673Z,99099.75
2019-01-06T09:43:55.686Z,99108.92
2019-01-06T09:47:03.579Z,99079.22
2019-01-06T09:50:11.402Z,99108.38
2019-01-06T09:53:19.317Z,99108.96
2019-01-06T09:56:27.148Z,99109.00
2019-01-06T09:59:34.964Z,99100.52
2019-01-06T10:05:41.990Z,98970.30
2019-01-06T10:08:49.804Z,98861.33
2019-01-06T10:11:57.635Z,99015.87
2019-01-06T10:15:05.454Z,99004.72
2019-01-06T10:18:13.291Z,99103.05
2019-01-06T10:21:21.109Z,99096.81
2019-01-06T10:24:28.940Z,99108.03
2019-01-06T10:27:36.761Z,99103.69
2019-01-06T10:30:44.598Z,99103.48
2019-01-06T10:39:57.367Z,99098.70
2019-01-06T10:43:05.182Z,99106.28
2019-01-06T10:46:13.027Z,99107.56
2019-01-06T10:49:13.830Z,98843.77
2019-01-06T10:52:21.659Z,99104.38
2019-01-06T10:55:29.465Z,99108.61
2019-01-06T10:58:37.295Z,99101.32
2019-01-06T11:01:45.181Z,99110.63
2019-01-06T11:04:53.011Z,99113.53
2019-01-06T11:08:00.865Z,99111.25
2019-01-06T11:11:08.685Z,99109.86
2019-01-06T11:14:16.497Z,98881.86
2019-01-06T11:17:24.398Z,99113.59
2019-01-06T11:20:32.225Z,99115.91
2019-01-06T11:23:40.045Z,99127.69
2019-01-06T11:29:57.326Z,98921.69
2019-01-06T11:33:05.139Z,99125.23
2019-01-06T11:35:53.634Z,99126.28
2019-01-06T11:39:01.702Z,99127.45
2019-01-06T11:42:09.531Z,99119.77
2019-01-06T11:45:17.359Z,99126.66
2019-01-06T11:51:20.529Z,99125.81
2019-01-06T11:54:28.363Z,98905.11
2019-01-06T11:57:36.187Z,99121.32
2019-01-06T12:00:44.017Z,99113.66
2019-01-06T12:03:51.897Z,99120.42
2019-01-06T12:09:55.317Z,99108.89
2019-01-06T12:13:03.151Z,99116.97
2019-01-06T12:16:10.972Z,98861.17
2019-01-06T12:19:19.034Z,98873.23
2019-01-06T12:22:26.850Z,99112.96
2019-01-06T12:25:15.414Z,98872.30
2019-01-06T12:28:23.232Z,99113.08
2019-01-06T12:31:31.063Z,99101.48
2019-01-06T12:37:48.430Z,99107.83
2019-01-06T12:44:05.606Z,99109.43
2019-01-06T12:47:13.407Z,99107.94
2019-01-06T12:50:13.628Z,99115.13
2019-01-06T12:53:21.443Z,99116.69
2019-01-06T12:56:29.275Z,99115.53
2019-01-06T12:59:37.090Z,98924.10
2019-01-06T13:05:40.757Z,99125.98
2019-01-06T13:08:48.568Z,99130.13
2019-01-06T13:11:56.402Z,98969.41
2019-01-06T13:15:04.245Z,99130.33
2019-01-06T13:18:12.321Z,99140.59
2019-01-06T13:21:20.377Z,99132.89
2019-01-06T13:24:28.208Z,99135.84
2019-01-06T13:27:16.782Z,99140.16
2019-01-06T13:30:45.505Z,99034.83
2019-01-06T13:33:53.334Z,99138.59
2019-01-06T13:37:01.149Z,99134.91
2019-01-06T13:40:08.983Z,99137.56
2019-01-06T13:43:16.814Z,98935.32
2019-01-06T13:49:07.991Z,99144.48
2019-01-06T13:52:15.808Z,99147.34
2019-01-06T13:58:38.930Z,99154.58
2019-01-06T14:01:46.761Z,99158.44
2019-01-06T14:04:54.582Z,99163.80
2019-01-06T14:08:02.430Z,99155.59
2019-01-06T14:11:11.295Z,99167.02
2019-01-06T14:13:59.872Z,99165.84
2019-01-06T14:17:07.772Z,99172.87
2019-01-06T14:20:16.875Z,99169.91
2019-01-06T14:23:25.254Z,99172.25
2019-01-06T14:26:33.108Z,99170.37
2019-01-06T14:29:40.916Z,98934.20
2019-01-06T14:32:48.749Z,99178.79
2019-01-06T14:35:56.972Z,99175.13
2019-01-06T14:42:00.657Z,99170.86
2019-01-06T14:45:08.443Z,99179.98
2019-01-06T14:47:54.981Z,99179.83
2019-01-06T14:51:02.814Z,99184.55
2019-01-06T14:54:10.635Z,98980.95
2019-01-06T14:57:18.455Z,98949.94
2019-01-06T15:00:47.195Z,99187.75
2019-01-06T15:03:55.030Z,99200.55
2019-01-06T15:07:02.842Z,99200.42
2019-01-06T15:10:10.675Z,99205.47
2019-01-06T15:13:18.508Z,99207.70
2019-01-06T15:16:26.346Z,99209.21
2019-01-06T15:19:34.161Z,99184.11
2019-01-06T15:22:22.743Z,99217.67
2019-01-06T15:25:30.562Z,99223.14
2019-01-06T15:28:38.391Z,99225.12
2019-01-06T15:31:46.454Z,98987.50
2019-01-06T15:34:54.289Z,98962.13
2019-01-06T15:38:02.099Z,99233.21
2019-01-06T15:41:09.928Z,99069.22
2019-01-06T15:44:17.743Z,98976.23
2019-01-06T15:47:18.036Z,99233.02
2019-01-06T15:50:25.854Z,99229.44
2019-01-06T15:53:33.687Z,99232.30
2019-01-06T15:56:41.499Z,99229.61
2019-01-06T15:59:49.336Z,99230.95
2019-01-06T16:02:57.151Z,99225.82
2019-01-06T16:06:04.977Z,99225.50
2019-01-06T16:09:12.819Z,99210.70
2019-01-06T16:12:20.639Z,99065.30
2019-01-06T16:15:28.469Z,99231.75
2019-01-06T16:18:36.286Z,99234.56
2019-01-06T16:21:44.126Z,99033.66
2019-01-06T16:24:51.940Z,99168.06
2019-01-06T16:27:59.782Z,99249.45
2019-01-06T16:31:07.954Z,99244.48
2019-01-06T16:34:15.810Z,99004.72
2019-01-06T16:37:23.675Z,99243.27
2019-01-06T16:40:31.509Z,99243.67
2019-01-06T16:43:39.351Z,99244.86
2019-01-06T16:46:40.067Z,99020.61
2019-01-06T16:49:48.021Z,99249.67
2019-01-06T16:56:05.213Z,99257.72
2019-01-06T16:59:13.080Z,99255.64
2019-01-06T17:02:20.932Z,99046.92
2019-01-06T17:05:28.777Z,99257.13
2019-01-06T17:08:36.597Z,99222.58
2019-01-06T17:11:44.423Z,99259.53
2019-01-06T17:14:52.252Z,99260.98
2019-01-06T17:21:09.462Z,99112.78
2019-01-06T17:27:27.703Z,99021.98
2019-01-06T17:33:45.610Z,99266.67
2019-01-06T17:36:53.425Z,99262.00
2019-01-06T17:40:01.273Z,99019.98
2019-01-06T17:43:09.082Z,99024.08
2019-01-06T17:46:16.907Z,99269.02
2019-01-06T17:52:25.850Z,99019.56
2019-01-06T17:55:33.859Z,99021.66
2019-01-06T17:58:41.719Z,99276.69
2019-01-06T18:01:49.625Z,99278.17
2019-01-06T18:04:57.440Z,99284.10
2019-01-06T18:08:05.309Z,99284.55
2019-01-06T18:11:13.239Z,99283.91
2019-01-06T18:14:02.164Z,99144.54
2019-01-06T18:20:05.498Z,99069.69
2019-01-06T18:26:22.738Z,99229.95
2019-01-06T18:29:30.854Z,99289.65
2019-01-06T18:32:39.232Z,99288.95
2019-01-06T18:35:47.219Z,99291.63
2019-01-06T18:38:55.319Z,99287.48
2019-01-06T18:42:03.199Z,99292.86
2019-01-06T18:48:02.267Z,99288.64
2019-01-06T18:57:59.479Z,99288.67
2019-01-06T19:04:51.140Z,99287.27
2019-01-06T19:44:06.429Z,99299.05
2019-01-06T19:47:10.935Z,99302.91
2019-01-06T19:56:48.627Z,99315.08
2019-01-06T19:59:57.271Z,99312.48
2019-01-06T20:09:50.626Z,99305.84
2019-01-06T20:22:57.298Z,99058.58
2019-01-06T20:26:10.898Z,99307.93
2019-01-06T20:47:56.762Z,99311.00
2019-01-06T20:51:26.328Z,99136.29
2019-01-06T20:57:51.661Z,99094.78
2019-01-06T21:01:18.038Z,99315.45
2019-01-06T21:14:00.964Z,99319.79
2019-01-06T21:20:17.690Z,99071.50
2019-01-06T21:27:14.296Z,99323.73
2019-01-06T21:37:26.378Z,99295.02
2019-01-06T21:47:09.092Z,99324.63
2019-01-06T21:50:17.037Z,99331.77
2019-01-06T21:53:24.866Z,99333.71
2019-01-06T21:59:42.100Z,99052.11
2019-01-06T22:02:49.992Z,99326.00
2019-01-06T22:05:57.891Z,99331.50
2019-01-06T22:12:15.077Z,99328.47
2019-01-06T22:18:51.314Z,99044.89
2019-01-06T22:21:59.128Z,99210.25
2019-01-06T22:25:06.965Z,99321.90
2019-01-06T22:28:14.777Z,99323.73
2019-01-06T22:31:25.291Z,99330.48
2019-01-06T22:34:32.146Z,99176.08
2019-01-06T22:40:35.945Z,99322.66
2019-01-06T22:43:43.760Z,99327.28
2019-01-06T22:46:51.601Z,99333.05
2019-01-06T22:53:00.281Z,99333.55
2019-01-06T22:56:08.092Z,99335.66
2019-01-06T22:59:15.922Z,99335.34
2019-01-06T23:02:23.907Z,99342.14
2019-01-06T23:08:30.966Z,99335.50
2019-01-06T23:11:38.786Z,99329.09
2019-01-06T23:14:46.621Z,99324.94
2019-01-06T23:17:35.182Z,99329.87
2019-01-06T23:20:43.011Z,99333.92
2019-01-06T23:27:00.225Z,99159.06
2019-01-06T23:30:08.031Z,99329.45
2019-01-06T23:38:51.114Z,99329.42
2019-01-06T23:41:58.927Z,99337.23
2019-01-06T23:48:02.602Z,99093.92
2019-01-06T23:50:48.979Z,99319.86
2019-01-06T23:53:56.787Z,99326.38
2019-01-06T23:57:04.630Z,99330.73
